Albany, New York
Traffic Map
Current Weather Conditions
Albany, New York
Broken Clouds
Broken Clouds
-9°
Feels Like: -13°
Wind Chill: -13° Ceiling: 3200
Heat Index: -9° Visibility: 10mi
Dew Point: -16° Wind: 5mph
Humidity: 59% Direction: 230° (SW)
Pressure: 30.04in Gusts: 0mph
Raw Report DataKALB 150251Z 23004KT 10SM BKN032 BKN042 M09/M16 A3004 RMK AO2 SLP179 T10891156 53022
Traffic Incident Summary
Active as of:
Severity:
Category:
InformationThere was an issue retrieving the traffic information for this location. Please try a different location or try again shortly.
Advertisements